Minneapolis, Minnesota
Traffic Map
Current Weather Conditions
Minneapolis, Minnesota
Scattered Clouds
Scattered Clouds
23°
Feels Like: 23°
Wind Chill: 23° Ceiling: Unl
Heat Index: 23° Visibility: 10mi
Dew Point: 12° Wind: 3mph
Humidity: 49% Direction: 110° (ESE)
Pressure: 30.02in Gusts: 0mph
Raw Report DataKMSP 021753Z 11003KT 10SM FEW050 SCT300 23/12 A3002 RMK AO2 SLP162 T02280117 10228 20150 58007
Traffic Incident Summary
Active as of:
Severity:
Category:
InformationThere was an issue retrieving the traffic information for this location. Please try a different location or try again shortly.
Advertisements
Track Severe Weather on mobile